Tihoreck, Russia
Current Conditions -  °F | °C
As of 7:00 AM on Sunday 26 Oct 2014 (Local Time) from URKK Reporting Station
Few Clouds Few Clouds  
Wind Chill: 14°   Ceiling: Unl
Heat Index: 27°   Visibility: 6mi
Dew Point: 19°   Wind: 18mph
Humidity: 74%   Direction: 80°E
Pressure: 30.42"   Gusts: 27mph
Location:  45.85°N, 40.13°E
Report Text: URKK 260400Z 08008G12MPS 9999 FEW010 M03/M07 Q1030 NOSIG RMKQFE769 SC065
Loading
Personal Weather Stations






























Interactive Weather Map
Tropical Storm Tracking
New forecast layout! Learn more

10-Day Weather Forecast

Advertisements
Track Severe Weather on mobile